createdAt,value
2023-01-27T00:03:23.662Z,93296.22
2023-01-27T00:08:31.340Z,93294.63
2023-01-27T00:13:38.159Z,93297.14
2023-01-27T00:18:45.158Z,93294.92
2023-01-27T00:24:09.361Z,93297.94
2023-01-27T00:29:16.324Z,93308.80
2023-01-27T00:34:23.512Z,93290.48
2023-01-27T00:39:30.616Z,93286.57
2023-01-27T00:44:38.017Z,93292.97
2023-01-27T00:49:45.295Z,93283.66
2023-01-27T00:54:52.138Z,93287.39
2023-01-27T00:59:59.947Z,93288.54
2023-01-27T01:05:07.056Z,93292.13
2023-01-27T01:10:14.176Z,93288.09
2023-01-27T01:15:21.786Z,93284.66
2023-01-27T01:20:28.539Z,93297.55
2023-01-27T01:25:36.360Z,93290.40
2023-01-27T01:30:43.204Z,93294.92
2023-01-27T01:35:50.341Z,93288.86
2023-01-27T01:40:57.392Z,93287.97
2023-01-27T01:46:06.788Z,93281.89
2023-01-27T01:51:35.907Z,93280.41
2023-01-27T01:56:58.474Z,93274.67
2023-01-27T02:02:08.711Z,93284.05
2023-01-27T02:07:27.490Z,93279.13
2023-01-27T02:12:34.566Z,93276.77
2023-01-27T02:17:41.741Z,93276.89
2023-01-27T02:23:18.461Z,93273.80
2023-01-27T02:28:30.387Z,93273.70
2023-01-27T02:33:37.107Z,93269.89
2023-01-27T02:38:48.283Z,93268.08
2023-01-27T02:43:54.953Z,93256.61
2023-01-27T02:49:01.652Z,93253.50
2023-01-27T02:54:08.752Z,93253.70
2023-01-27T02:59:15.439Z,93254.52
2023-01-27T03:04:22.167Z,93254.50
2023-01-27T03:09:28.850Z,93250.21
2023-01-27T03:14:53.454Z,93247.61
2023-01-27T03:20:00.876Z,93245.91
2023-01-27T03:25:08.335Z,93238.81
2023-01-27T03:30:15.165Z,93242.71
2023-01-27T03:35:23.573Z,93237.42
2023-01-27T03:40:48.328Z,93235.91
2023-01-27T03:46:12.607Z,93227.23
2023-01-27T03:51:21.277Z,93224.80
2023-01-27T03:56:28.026Z,93209.68
2023-01-27T04:01:34.790Z,93206.42
2023-01-27T04:06:54.656Z,93208.34
2023-01-27T04:12:04.670Z,93197.25
2023-01-27T04:17:17.373Z,93198.77
2023-01-27T04:22:23.885Z,93194.37
2023-01-27T04:27:30.623Z,93191.17
2023-01-27T04:32:37.419Z,93194.05
2023-01-27T04:37:44.189Z,93189.13
2023-01-27T04:42:51.172Z,93110.19
2023-01-27T04:47:57.841Z,93191.05
2023-01-27T04:53:04.456Z,93198.23
2023-01-27T04:58:12.563Z,93201.02
2023-01-27T05:03:19.686Z,93208.40
2023-01-27T05:08:26.329Z,93203.13
2023-01-27T05:13:33.593Z,93208.73
2023-01-27T05:18:41.604Z,93204.13
2023-01-27T05:23:48.357Z,93211.83
2023-01-27T05:28:58.613Z,93218.03
2023-01-27T05:34:05.493Z,93215.34
2023-01-27T05:39:13.596Z,93220.22
2023-01-27T05:44:20.216Z,93218.23
2023-01-27T05:49:27.030Z,93215.36
2023-01-27T05:54:33.675Z,93218.03
2023-01-27T05:59:40.418Z,93223.10
2023-01-27T06:04:47.200Z,93219.25
2023-01-27T06:09:54.080Z,93222.75
2023-01-27T06:15:03.048Z,93222.62
2023-01-27T06:20:10.796Z,93220.42
2023-01-27T06:25:17.610Z,93228.14
2023-01-27T06:30:24.718Z,93228.81
2023-01-27T06:35:31.911Z,93230.99
2023-01-27T06:40:38.623Z,93230.23
2023-01-27T06:45:45.323Z,93229.31
2023-01-27T06:50:52.020Z,93230.82
2023-01-27T06:56:02.940Z,93226.53
2023-01-27T07:01:09.707Z,93228.91
2023-01-27T07:06:18.711Z,93224.15
2023-01-27T07:11:25.713Z,93227.42
2023-01-27T07:16:32.413Z,93221.33
2023-01-27T07:21:39.132Z,93231.72
2023-01-27T07:26:47.383Z,93228.79
2023-01-27T07:31:54.143Z,93227.05
2023-01-27T07:37:00.791Z,93237.03
2023-01-27T07:42:08.189Z,93241.61
2023-01-27T07:47:14.920Z,93244.02
2023-01-27T07:52:21.590Z,93250.38
2023-01-27T07:57:28.341Z,93250.02
2023-01-27T08:02:34.968Z,93246.83
2023-01-27T08:07:41.711Z,93249.70
2023-01-27T08:12:48.846Z,93256.69
2023-01-27T08:17:59.877Z,93266.89
2023-01-27T08:23:06.571Z,93266.86
2023-01-27T08:28:13.268Z,93266.78
2023-01-27T08:33:23.480Z,93274.58
2023-01-27T08:38:30.399Z,93279.56
2023-01-27T08:43:37.497Z,93279.55
2023-01-27T08:48:44.572Z,93278.09
2023-01-27T08:53:51.321Z,93291.34
2023-01-27T08:58:58.040Z,93288.30
2023-01-27T09:04:04.719Z,93300.05
2023-01-27T09:09:12.365Z,93296.14
2023-01-27T09:14:20.399Z,93300.16
2023-01-27T09:19:27.200Z,93310.75
2023-01-27T09:24:33.966Z,93309.16
2023-01-27T09:29:40.729Z,93318.09
2023-01-27T09:34:47.418Z,93317.97
2023-01-27T09:39:58.515Z,93325.75
2023-01-27T09:45:47.364Z,93332.75
2023-01-27T09:51:16.059Z,93329.16
2023-01-27T09:56:38.984Z,93324.14
2023-01-27T10:02:04.914Z,93310.47
2023-01-27T10:07:28.152Z,93305.16
2023-01-27T10:12:47.824Z,93300.39
2023-01-27T10:18:07.617Z,93298.80
2023-01-27T10:23:27.051Z,93290.90
2023-01-27T10:28:35.634Z,93288.27
2023-01-27T10:33:58.722Z,93280.06
2023-01-27T10:39:17.915Z,93277.19
2023-01-27T10:44:46.965Z,93268.99
2023-01-27T10:50:01.589Z,93276.22
2023-01-27T10:55:36.812Z,93268.02
2023-01-27T11:06:02.620Z,93261.56
2023-01-27T11:11:28.752Z,93256.23
2023-01-27T11:16:41.668Z,93255.42
2023-01-27T11:21:58.179Z,93245.73
2023-01-27T11:27:00.978Z,93241.83
2023-01-27T11:32:29.890Z,93231.22
2023-01-27T11:37:45.970Z,93226.92
2023-01-27T11:42:53.050Z,93227.41
2023-01-27T11:48:02.108Z,93221.64
2023-01-27T11:53:32.554Z,93218.73
2023-01-27T11:59:04.482Z,93221.88
2023-01-27T12:04:24.318Z,93214.11
2023-01-27T12:09:37.144Z,93209.46
2023-01-27T12:14:59.783Z,93202.44
2023-01-27T12:20:19.589Z,93194.70
2023-01-27T12:25:36.280Z,93217.97
2023-01-27T12:30:42.980Z,93198.91
2023-01-27T12:35:52.145Z,93202.74
2023-01-27T12:41:03.451Z,93192.13
2023-01-27T12:46:17.591Z,93189.30
2023-01-27T12:51:28.425Z,93179.72
2023-01-27T12:56:36.790Z,93176.39
2023-01-27T13:01:45.125Z,93176.84
2023-01-27T13:06:58.128Z,93181.60
2023-01-27T13:12:20.768Z,93179.10
2023-01-27T13:17:41.057Z,93181.74
2023-01-27T13:22:52.237Z,93170.70
2023-01-27T13:28:01.510Z,93170.14
2023-01-27T13:33:35.793Z,93177.05
2023-01-27T13:38:55.103Z,93170.86
2023-01-27T13:44:06.491Z,93163.92
2023-01-27T13:49:37.271Z,93169.42
2023-01-27T13:54:44.189Z,93168.27
2023-01-27T14:00:07.168Z,93163.48
2023-01-27T14:05:43.649Z,93169.64
2023-01-27T14:11:24.838Z,93170.84
2023-01-27T14:16:47.465Z,93171.81
2023-01-27T14:22:16.644Z,93162.31
2023-01-27T14:27:39.890Z,93177.89
2023-01-27T14:33:15.403Z,93172.58
2023-01-27T14:38:38.388Z,93168.99
2023-01-27T14:43:58.860Z,93168.31
2023-01-27T14:49:27.538Z,93179.89
2023-01-27T14:55:26.872Z,93184.58
2023-01-27T15:00:49.817Z,93185.39
2023-01-27T15:06:18.241Z,93185.98
2023-01-27T15:12:05.291Z,93188.84
2023-01-27T15:17:25.335Z,93191.56
2023-01-27T15:22:51.047Z,93197.08
2023-01-27T15:27:57.950Z,93204.84
2023-01-27T15:33:05.348Z,93210.90
2023-01-27T15:38:25.100Z,93216.95
2023-01-27T15:43:33.280Z,93217.60
2023-01-27T15:48:41.297Z,93221.02
2023-01-27T15:53:57.664Z,93223.05
2023-01-27T15:59:06.818Z,93224.45
2023-01-27T16:04:20.898Z,93230.44
2023-01-27T16:09:43.056Z,93237.40
2023-01-27T16:14:49.759Z,93229.64
2023-01-27T16:20:25.497Z,93235.77
2023-01-27T16:25:42.454Z,93241.09
2023-01-27T16:31:14.444Z,93256.03
2023-01-27T16:36:38.202Z,93256.07
2023-01-27T16:41:49.446Z,93255.83
2023-01-27T16:47:14.969Z,93257.08
2023-01-27T16:52:40.390Z,93261.06
2023-01-27T16:57:40.965Z,93269.72
2023-01-27T17:02:46.985Z,93265.81
2023-01-27T17:08:13.371Z,93271.68
2023-01-27T17:13:32.949Z,93281.80
2023-01-27T17:18:51.808Z,93287.05
2023-01-27T17:23:47.671Z,93297.25
2023-01-27T17:28:53.459Z,93293.70
2023-01-27T17:34:01.556Z,93301.74
2023-01-27T17:39:10.018Z,93302.13
2023-01-27T17:44:16.890Z,93300.86
2023-01-27T17:49:22.337Z,93304.20
2023-01-27T17:54:37.050Z,93303.66
2023-01-27T17:59:48.354Z,93302.69
2023-01-27T18:04:55.317Z,93303.13
2023-01-27T18:10:02.088Z,93307.95
2023-01-27T18:15:36.688Z,93314.57
2023-01-27T18:20:42.595Z,93313.77
2023-01-27T18:25:52.864Z,93321.98
2023-01-27T18:30:58.577Z,93325.65
2023-01-27T18:36:04.643Z,93335.44
2023-01-27T18:41:15.928Z,93335.01
2023-01-27T18:46:22.040Z,93346.05
2023-01-27T18:51:27.791Z,93342.78
2023-01-27T18:56:33.419Z,93349.75
2023-01-27T19:01:39.159Z,93342.13
2023-01-27T19:06:44.765Z,93349.38
2023-01-27T19:11:50.918Z,93343.97
2023-01-27T19:16:56.577Z,93340.47
2023-01-27T19:22:02.498Z,93337.13
2023-01-27T19:27:09.994Z,93336.76
2023-01-27T19:32:16.884Z,93330.31
2023-01-27T19:37:23.454Z,93333.83
2023-01-27T19:42:29.051Z,93333.03
2023-01-27T19:47:34.687Z,93328.72
2023-01-27T19:52:40.343Z,93332.37
2023-01-27T19:57:46.337Z,93326.31
2023-01-27T20:02:52.209Z,93335.75
2023-01-27T20:07:58.743Z,93331.97
2023-01-27T20:13:06.457Z,93335.15
2023-01-27T20:18:16.720Z,93330.53
2023-01-27T20:23:22.099Z,93332.75
2023-01-27T20:28:28.660Z,93344.08
2023-01-27T20:33:34.502Z,93347.28
2023-01-27T20:38:40.748Z,93351.38
2023-01-27T20:43:46.334Z,93354.77
2023-01-27T20:48:51.954Z,93361.01
2023-01-27T20:53:59.188Z,93374.07
2023-01-27T20:59:04.579Z,93364.57
2023-01-27T21:04:10.162Z,93367.08
2023-01-27T21:09:15.774Z,93364.67
2023-01-27T21:14:21.232Z,93381.36
2023-01-27T21:19:26.855Z,93385.78
2023-01-27T21:24:32.730Z,93383.05
2023-01-27T21:29:38.169Z,93394.55
2023-01-27T21:34:43.780Z,93395.27
2023-01-27T21:39:49.803Z,93390.78
2023-01-27T21:45:15.685Z,93396.42
2023-01-27T21:50:22.339Z,93397.12
2023-01-27T21:55:31.372Z,93401.02
2023-01-27T22:00:36.763Z,93401.31
2023-01-27T22:05:42.401Z,93406.77
2023-01-27T22:10:47.788Z,93406.44
2023-01-27T22:15:53.544Z,93417.09
2023-01-27T22:21:03.179Z,93413.70
2023-01-27T22:26:09.540Z,93213.20
2023-01-27T22:31:14.944Z,93415.48
2023-01-27T22:36:21.066Z,93420.19
2023-01-27T22:41:26.645Z,93411.82
2023-01-27T22:46:32.020Z,93407.13
2023-01-27T22:51:37.787Z,93405.64
2023-01-27T22:56:43.498Z,93398.24
2023-01-27T23:01:49.049Z,93398.27
2023-01-27T23:06:54.653Z,93396.67
2023-01-27T23:12:00.274Z,93388.84
2023-01-27T23:17:06.284Z,93383.69
2023-01-27T23:22:12.098Z,93384.09
2023-01-27T23:27:17.677Z,93371.90
2023-01-27T23:32:23.148Z,93373.12
2023-01-27T23:37:28.621Z,93377.55
2023-01-27T23:42:34.807Z,93376.64
2023-01-27T23:47:40.401Z,93379.41
2023-01-27T23:52:46.007Z,93377.18
2023-01-27T23:57:51.607Z,93366.90
